AFR8 LFPG-KJFK
Flight info
| Callsign | AFR8 |
|---|---|
| Flight time | N/A |
| Altitude | 36000 |
| Route | ELCOB6K ELCOB UT300 SENLO UN502 JSY DCT LIZAD DCT ARKIL DCT LIMRI/M081F360 DCT 52N020W 52N030W 51N040W 49N050W DCT JOOPY/N0473F360 N328A TUSKY DCT PLYMM PARCH3 |
| Aircraft | B772/H-SDE2E3FGHIJ5LORVWXY/LB1D1 |
Departure
| Time | N/A |
|---|---|
| Airport | Charles de Gaulle International Airport (LFPG) |
Arrival
| Time | 2026-05-09 04:02 |
|---|---|
| Airport | John F. Kennedy International Airport (KJFK) |
| Time | Latitude | Longitude | Altitude | Speed | Heading |
|---|---|---|---|---|---|
| 2026-05-09 01:28 | 48.78536 | -50.88027 | 35753 ft | 460 kts | 242° |
| 2026-05-09 01:29 | 48.76266 | -50.97139 | 35745 ft | 460 kts | 242° |
| 2026-05-09 01:29 | 48.74013 | -51.06149 | 35739 ft | 460 kts | 242° |
| 2026-05-09 01:30 | 48.71739 | -51.15203 | 35736 ft | 460 kts | 242° |
| 2026-05-09 01:30 | 48.69458 | -51.24245 | 35731 ft | 459 kts | 241° |
| 2026-05-09 01:31 | 48.67175 | -51.33267 | 35727 ft | 459 kts | 241° |
| 2026-05-09 01:31 | 48.64877 | -51.42307 | 35722 ft | 458 kts | 241° |
| 2026-05-09 01:32 | 48.62597 | -51.51241 | 35722 ft | 458 kts | 241° |
| 2026-05-09 01:32 | 48.60299 | -51.60215 | 35709 ft | 457 kts | 241° |
| 2026-05-09 01:33 | 48.57997 | -51.69164 | 35707 ft | 457 kts | 240° |
| 2026-05-09 01:33 | 48.55688 | -51.78108 | 35705 ft | 456 kts | 240° |
| 2026-05-09 01:34 | 48.53384 | -51.86997 | 35703 ft | 456 kts | 240° |
| 2026-05-09 01:34 | 48.51069 | -51.95903 | 35697 ft | 456 kts | 240° |
| 2026-05-09 01:35 | 48.48779 | -52.04853 | 35686 ft | 457 kts | 241° |
| 2026-05-09 01:35 | 48.46638 | -52.13809 | 35682 ft | 457 kts | 242° |
| 2026-05-09 01:36 | 48.44500 | -52.22833 | 35677 ft | 456 kts | 241° |
| 2026-05-09 01:36 | 48.42342 | -52.31832 | 35671 ft | 456 kts | 241° |
| 2026-05-09 01:37 | 48.40173 | -52.40788 | 35662 ft | 455 kts | 241° |
| 2026-05-09 01:37 | 48.38006 | -52.49681 | 35659 ft | 455 kts | 241° |
| 2026-05-09 01:38 | 48.35820 | -52.58616 | 35655 ft | 455 kts | 240° |
| 2026-05-09 01:38 | 48.33627 | -52.67545 | 35650 ft | 455 kts | 240° |
| 2026-05-09 01:39 | 48.31429 | -52.76459 | 35648 ft | 455 kts | 240° |
| 2026-05-09 01:39 | 48.29223 | -52.85371 | 35645 ft | 455 kts | 240° |
| 2026-05-09 01:40 | 48.27007 | -52.94287 | 35717 ft | 457 kts | 240° |
| 2026-05-09 01:40 | 48.25907 | -52.98697 | 35935 ft | 456 kts | 240° |
| 2026-05-09 01:40 | 48.24797 | -53.03152 | 36220 ft | 453 kts | 240° |
| 2026-05-09 01:41 | 48.23692 | -53.07574 | 36468 ft | 452 kts | 240° |
| 2026-05-09 01:41 | 48.22585 | -53.11992 | 36670 ft | 452 kts | 240° |
| 2026-05-09 01:41 | 48.21478 | -53.16398 | 36851 ft | 451 kts | 240° |
| 2026-05-09 01:41 | 48.20366 | -53.20812 | 37068 ft | 451 kts | 240° |
| 2026-05-09 01:42 | 48.19273 | -53.25148 | 37262 ft | 450 kts | 240° |
| 2026-05-09 01:42 | 48.18165 | -53.29532 | 37464 ft | 449 kts | 240° |
| 2026-05-09 01:42 | 48.15938 | -53.38311 | 37601 ft | 451 kts | 240° |
| 2026-05-09 01:43 | 48.13714 | -53.47053 | 37613 ft | 451 kts | 240° |
| 2026-05-09 01:43 | 48.11480 | -53.55811 | 37604 ft | 449 kts | 240° |
| 2026-05-09 01:44 | 48.09240 | -53.64549 | 37609 ft | 448 kts | 240° |
| 2026-05-09 01:44 | 48.07014 | -53.73200 | 37609 ft | 447 kts | 240° |
| 2026-05-09 01:45 | 48.04772 | -53.81878 | 37612 ft | 447 kts | 240° |
| 2026-05-09 01:45 | 48.02523 | -53.90550 | 37614 ft | 447 kts | 240° |
| 2026-05-09 01:46 | 48.00271 | -53.99203 | 37613 ft | 447 kts | 240° |
| 2026-05-09 01:46 | 47.98024 | -54.07803 | 37603 ft | 447 kts | 240° |
| 2026-05-09 01:47 | 47.95756 | -54.16452 | 37610 ft | 448 kts | 240° |
| 2026-05-09 01:47 | 47.93478 | -54.25105 | 37618 ft | 448 kts | 240° |
| 2026-05-09 01:48 | 47.91189 | -54.33774 | 37617 ft | 449 kts | 240° |
| 2026-05-09 01:48 | 47.88894 | -54.42427 | 37620 ft | 449 kts | 240° |
| 2026-05-09 01:49 | 47.86593 | -54.51075 | 37630 ft | 449 kts | 240° |
| 2026-05-09 01:49 | 47.84300 | -54.59659 | 37619 ft | 449 kts | 240° |
| 2026-05-09 01:50 | 47.81981 | -54.68308 | 37608 ft | 448 kts | 240° |
| 2026-05-09 01:50 | 47.79677 | -54.76874 | 37614 ft | 448 kts | 240° |
| 2026-05-09 01:51 | 47.77348 | -54.85495 | 37605 ft | 447 kts | 240° |
| 2026-05-09 01:51 | 47.75036 | -54.94022 | 37599 ft | 447 kts | 239° |
| 2026-05-09 01:52 | 47.72701 | -55.02603 | 37598 ft | 447 kts | 239° |
| 2026-05-09 01:52 | 47.70371 | -55.11133 | 37587 ft | 447 kts | 239° |
| 2026-05-09 01:53 | 47.68024 | -55.19700 | 37566 ft | 448 kts | 239° |
| 2026-05-09 01:53 | 47.65668 | -55.28268 | 37554 ft | 448 kts | 239° |
| 2026-05-09 01:54 | 47.63314 | -55.36797 | 37544 ft | 449 kts | 239° |
| 2026-05-09 01:54 | 47.60939 | -55.45369 | 37531 ft | 449 kts | 239° |
| 2026-05-09 01:55 | 47.58555 | -55.53944 | 37521 ft | 450 kts | 239° |
| 2026-05-09 01:55 | 47.56161 | -55.62523 | 37531 ft | 451 kts | 239° |
| 2026-05-09 01:56 | 47.53767 | -55.71070 | 37512 ft | 452 kts | 239° |
| 2026-05-09 01:56 | 47.51345 | -55.79686 | 37521 ft | 453 kts | 239° |
| 2026-05-09 01:57 | 47.48914 | -55.88299 | 37528 ft | 453 kts | 239° |
| 2026-05-09 01:57 | 47.46489 | -55.96876 | 37530 ft | 455 kts | 239° |
| 2026-05-09 01:58 | 47.44031 | -56.05535 | 37530 ft | 456 kts | 239° |
| 2026-05-09 01:58 | 47.41581 | -56.14127 | 37552 ft | 457 kts | 239° |
| 2026-05-09 01:59 | 47.39103 | -56.22788 | 37566 ft | 458 kts | 239° |
| 2026-05-09 01:59 | 47.36611 | -56.31468 | 37577 ft | 459 kts | 239° |
| 2026-05-09 02:00 | 47.34127 | -56.40089 | 37584 ft | 459 kts | 239° |
| 2026-05-09 02:00 | 47.31614 | -56.48779 | 37598 ft | 460 kts | 239° |
| 2026-05-09 02:01 | 47.29091 | -56.57476 | 37607 ft | 460 kts | 239° |
| 2026-05-09 02:01 | 47.26580 | -56.66099 | 37617 ft | 461 kts | 239° |
| 2026-05-09 02:02 | 47.24046 | -56.74770 | 37627 ft | 461 kts | 239° |
| 2026-05-09 02:02 | 47.21506 | -56.83430 | 37643 ft | 461 kts | 239° |
| 2026-05-09 02:03 | 47.18955 | -56.92097 | 37645 ft | 461 kts | 239° |
| 2026-05-09 02:03 | 47.16397 | -57.00758 | 37664 ft | 461 kts | 239° |
| 2026-05-09 02:04 | 47.13849 | -57.09355 | 37665 ft | 462 kts | 240° |
| 2026-05-09 02:04 | 47.11275 | -57.18008 | 37669 ft | 462 kts | 240° |
| 2026-05-09 02:05 | 47.08689 | -57.26671 | 37673 ft | 463 kts | 240° |
| 2026-05-09 02:05 | 47.06095 | -57.35332 | 37666 ft | 463 kts | 240° |
| 2026-05-09 02:06 | 47.03513 | -57.43923 | 37672 ft | 464 kts | 240° |
| 2026-05-09 02:07 | 46.99588 | -57.56927 | 37685 ft | 464 kts | 240° |
| 2026-05-09 02:07 | 46.96962 | -57.65588 | 37687 ft | 465 kts | 240° |
| 2026-05-09 02:08 | 46.94342 | -57.74201 | 37692 ft | 465 kts | 240° |
| 2026-05-09 02:08 | 46.91694 | -57.82872 | 37693 ft | 466 kts | 240° |
| 2026-05-09 02:09 | 46.89058 | -57.91479 | 37698 ft | 466 kts | 240° |
| 2026-05-09 02:09 | 46.86397 | -58.00135 | 37705 ft | 466 kts | 240° |
| 2026-05-09 02:10 | 46.83734 | -58.08771 | 37709 ft | 466 kts | 240° |
| 2026-05-09 02:10 | 46.81075 | -58.17359 | 37710 ft | 466 kts | 240° |
| 2026-05-09 02:11 | 46.78394 | -58.25992 | 37718 ft | 467 kts | 240° |
| 2026-05-09 02:11 | 46.75706 | -58.34618 | 37722 ft | 467 kts | 240° |
| 2026-05-09 02:12 | 46.73006 | -58.43255 | 37723 ft | 467 kts | 240° |
| 2026-05-09 02:12 | 46.70321 | -58.51812 | 37735 ft | 467 kts | 240° |
| 2026-05-09 02:13 | 46.67608 | -58.60432 | 37725 ft | 467 kts | 240° |
| 2026-05-09 02:13 | 46.64890 | -58.69037 | 37728 ft | 467 kts | 240° |
| 2026-05-09 02:14 | 46.62180 | -58.77585 | 37737 ft | 467 kts | 240° |
| 2026-05-09 02:14 | 46.59908 | -58.84731 | 37742 ft | 467 kts | 240° |
| 2026-05-09 02:15 | 46.56726 | -58.94707 | 37758 ft | 467 kts | 240° |
| 2026-05-09 02:15 | 46.54429 | -59.01885 | 37757 ft | 468 kts | 240° |
| 2026-05-09 02:16 | 46.51694 | -59.10402 | 37762 ft | 468 kts | 240° |
| 2026-05-09 02:16 | 46.48935 | -59.18969 | 37759 ft | 468 kts | 240° |
| 2026-05-09 02:17 | 46.46163 | -59.27548 | 37762 ft | 468 kts | 240° |
| 2026-05-09 02:17 | 46.43387 | -59.36109 | 37764 ft | 469 kts | 240° |
| 2026-05-09 02:18 | 46.40622 | -59.44607 | 37768 ft | 469 kts | 240° |
| 2026-05-09 02:18 | 46.37834 | -59.53149 | 37770 ft | 469 kts | 241° |
| 2026-05-09 02:19 | 46.35037 | -59.61689 | 37772 ft | 469 kts | 241° |
| 2026-05-09 02:19 | 46.32235 | -59.70219 | 37773 ft | 469 kts | 241° |
| 2026-05-09 02:20 | 46.29438 | -59.78704 | 37762 ft | 469 kts | 241° |
| 2026-05-09 02:20 | 46.26620 | -59.87226 | 37764 ft | 469 kts | 241° |
| 2026-05-09 02:21 | 46.23801 | -59.95721 | 37766 ft | 469 kts | 241° |
| 2026-05-09 02:21 | 46.20988 | -60.04169 | 37772 ft | 469 kts | 241° |
| 2026-05-09 02:22 | 46.18158 | -60.12644 | 37771 ft | 469 kts | 241° |
| 2026-05-09 02:22 | 46.15315 | -60.21129 | 37772 ft | 469 kts | 241° |
| 2026-05-09 02:23 | 46.12480 | -60.29562 | 37769 ft | 469 kts | 241° |
| 2026-05-09 02:23 | 46.09625 | -60.38029 | 37765 ft | 469 kts | 241° |
| 2026-05-09 02:24 | 46.06786 | -60.46424 | 37767 ft | 469 kts | 241° |
| 2026-05-09 02:24 | 46.03919 | -60.54870 | 37766 ft | 469 kts | 241° |
| 2026-05-09 02:25 | 46.01048 | -60.63301 | 37767 ft | 469 kts | 241° |
| 2026-05-09 02:25 | 45.98164 | -60.71745 | 37764 ft | 469 kts | 241° |
| 2026-05-09 02:26 | 45.95293 | -60.80125 | 37772 ft | 470 kts | 241° |
| 2026-05-09 02:26 | 45.92396 | -60.88552 | 37762 ft | 470 kts | 241° |
| 2026-05-09 02:27 | 45.89507 | -60.96930 | 37769 ft | 470 kts | 241° |
| 2026-05-09 02:27 | 45.86592 | -61.05357 | 37778 ft | 471 kts | 241° |
| 2026-05-09 02:28 | 45.83670 | -61.13775 | 37786 ft | 471 kts | 241° |
| 2026-05-09 02:28 | 45.80736 | -61.22204 | 37799 ft | 472 kts | 241° |
| 2026-05-09 02:29 | 45.77816 | -61.30567 | 37796 ft | 472 kts | 241° |
| 2026-05-09 02:29 | 45.74867 | -61.38983 | 37798 ft | 473 kts | 241° |
| 2026-05-09 02:30 | 45.71904 | -61.47416 | 37801 ft | 473 kts | 241° |
| 2026-05-09 02:30 | 45.68933 | -61.55843 | 37801 ft | 474 kts | 241° |
| 2026-05-09 02:31 | 45.65969 | -61.64224 | 37801 ft | 474 kts | 241° |
| 2026-05-09 02:31 | 45.62998 | -61.72597 | 37805 ft | 474 kts | 241° |
| 2026-05-09 02:32 | 45.60007 | -61.81003 | 37808 ft | 475 kts | 241° |
| 2026-05-09 02:32 | 45.57005 | -61.89413 | 37810 ft | 475 kts | 241° |
| 2026-05-09 02:33 | 45.53994 | -61.97821 | 37814 ft | 475 kts | 241° |
| 2026-05-09 02:33 | 45.50991 | -62.06181 | 37817 ft | 476 kts | 241° |
| 2026-05-09 02:34 | 45.47965 | -62.14578 | 37820 ft | 476 kts | 241° |
| 2026-05-09 02:34 | 45.44928 | -62.22981 | 37826 ft | 476 kts | 241° |
| 2026-05-09 02:35 | 45.41905 | -62.31320 | 37830 ft | 476 kts | 241° |
| 2026-05-09 02:35 | 45.38854 | -62.39709 | 37829 ft | 477 kts | 242° |
| 2026-05-09 02:36 | 45.35803 | -62.48070 | 37832 ft | 477 kts | 242° |
| 2026-05-09 02:36 | 45.32754 | -62.56403 | 37833 ft | 477 kts | 242° |
| 2026-05-09 02:37 | 45.29683 | -62.64770 | 37837 ft | 477 kts | 242° |
| 2026-05-09 02:37 | 45.26599 | -62.73145 | 37839 ft | 477 kts | 242° |
| 2026-05-09 02:38 | 45.23536 | -62.81440 | 37836 ft | 477 kts | 242° |
| 2026-05-09 02:38 | 45.20444 | -62.89786 | 37838 ft | 477 kts | 242° |
| 2026-05-09 02:39 | 45.17341 | -62.98136 | 37841 ft | 477 kts | 242° |
| 2026-05-09 02:39 | 45.14259 | -63.06407 | 37837 ft | 477 kts | 242° |
| 2026-05-09 02:40 | 45.11152 | -63.14718 | 37840 ft | 477 kts | 242° |
| 2026-05-09 02:40 | 45.08036 | -63.23029 | 37845 ft | 477 kts | 242° |
| 2026-05-09 02:41 | 45.04934 | -63.31275 | 37853 ft | 477 kts | 242° |
| 2026-05-09 02:41 | 45.01805 | -63.39571 | 37856 ft | 477 kts | 242° |
| 2026-05-09 02:42 | 44.98675 | -63.47844 | 37857 ft | 477 kts | 242° |
| 2026-05-09 02:42 | 44.95535 | -63.56116 | 37861 ft | 477 kts | 242° |
| 2026-05-09 02:43 | 44.92414 | -63.64316 | 37860 ft | 477 kts | 242° |
| 2026-05-09 02:43 | 44.89265 | -63.72566 | 37859 ft | 477 kts | 242° |
| 2026-05-09 02:44 | 44.86108 | -63.80810 | 37854 ft | 477 kts | 242° |
| 2026-05-09 02:44 | 44.82951 | -63.89030 | 37853 ft | 477 kts | 242° |
| 2026-05-09 02:45 | 44.79798 | -63.97217 | 37851 ft | 477 kts | 242° |
| 2026-05-09 02:45 | 44.76627 | -64.05424 | 37846 ft | 477 kts | 242° |
| 2026-05-09 02:46 | 44.73465 | -64.13586 | 37851 ft | 477 kts | 242° |
| 2026-05-09 02:46 | 44.70285 | -64.21768 | 37853 ft | 476 kts | 242° |
| 2026-05-09 02:47 | 44.67102 | -64.29935 | 37850 ft | 476 kts | 242° |
| 2026-05-09 02:47 | 44.63910 | -64.38101 | 37846 ft | 476 kts | 242° |
| 2026-05-09 02:48 | 44.60717 | -64.46246 | 37854 ft | 476 kts | 242° |
| 2026-05-09 02:48 | 44.57538 | -64.54332 | 37859 ft | 475 kts | 242° |
| 2026-05-09 02:49 | 44.54332 | -64.62462 | 37858 ft | 475 kts | 242° |
| 2026-05-09 02:49 | 44.51146 | -64.70519 | 37864 ft | 475 kts | 242° |
| 2026-05-09 02:50 | 44.47938 | -64.78607 | 37875 ft | 474 kts | 242° |
| 2026-05-09 02:50 | 44.44720 | -64.86700 | 37876 ft | 474 kts | 242° |
| 2026-05-09 02:51 | 44.41522 | -64.94718 | 37881 ft | 474 kts | 242° |
| 2026-05-09 02:51 | 44.38302 | -65.02766 | 37889 ft | 473 kts | 242° |
| 2026-05-09 02:52 | 44.35080 | -65.10800 | 37895 ft | 473 kts | 242° |
| 2026-05-09 02:52 | 44.31853 | -65.18821 | 37899 ft | 473 kts | 242° |
| 2026-05-09 02:53 | 44.28649 | -65.26764 | 37901 ft | 472 kts | 242° |
| 2026-05-09 02:53 | 44.25416 | -65.34753 | 37904 ft | 472 kts | 242° |
| 2026-05-09 02:54 | 44.22184 | -65.42721 | 37910 ft | 472 kts | 242° |
| 2026-05-09 02:54 | 44.18942 | -65.50689 | 37913 ft | 471 kts | 242° |
| 2026-05-09 02:55 | 44.15701 | -65.58633 | 37908 ft | 471 kts | 242° |
| 2026-05-09 02:55 | 44.12477 | -65.66514 | 37909 ft | 471 kts | 242° |
| 2026-05-09 02:56 | 44.09218 | -65.74456 | 37915 ft | 471 kts | 242° |
| 2026-05-09 02:56 | 44.05960 | -65.82376 | 37922 ft | 471 kts | 242° |
| 2026-05-09 02:57 | 44.02722 | -65.90225 | 37921 ft | 470 kts | 242° |
| 2026-05-09 02:57 | 43.99457 | -65.98117 | 37921 ft | 470 kts | 242° |
| 2026-05-09 02:58 | 43.96197 | -66.05977 | 37926 ft | 469 kts | 242° |
| 2026-05-09 02:58 | 43.92949 | -66.13786 | 37923 ft | 468 kts | 242° |
| 2026-05-09 02:59 | 43.89684 | -66.21613 | 37923 ft | 468 kts | 242° |
| 2026-05-09 02:59 | 43.86424 | -66.29407 | 37923 ft | 467 kts | 242° |
| 2026-05-09 03:00 | 43.83174 | -66.37156 | 37928 ft | 467 kts | 242° |
| 2026-05-09 03:00 | 43.79909 | -66.44922 | 37932 ft | 466 kts | 242° |
| 2026-05-09 03:01 | 43.76640 | -66.52675 | 37935 ft | 466 kts | 242° |
| 2026-05-09 03:01 | 43.73365 | -66.60421 | 37934 ft | 465 kts | 242° |
| 2026-05-09 03:02 | 43.70114 | -66.68092 | 37940 ft | 465 kts | 242° |
| 2026-05-09 03:02 | 43.66835 | -66.75807 | 37956 ft | 465 kts | 242° |
| 2026-05-09 03:03 | 43.64107 | -66.82210 | 37950 ft | 465 kts | 242° |
| 2026-05-09 03:03 | 43.60828 | -66.89891 | 37953 ft | 464 kts | 242° |
| 2026-05-09 03:04 | 43.57537 | -66.97580 | 37957 ft | 464 kts | 242° |
| 2026-05-09 03:04 | 43.54279 | -67.05234 | 37961 ft | 464 kts | 243° |
| 2026-05-09 03:05 | 43.51050 | -67.12939 | 37962 ft | 464 kts | 243° |
| 2026-05-09 03:05 | 43.47837 | -67.20603 | 37963 ft | 464 kts | 243° |
| 2026-05-09 03:06 | 43.44597 | -67.28295 | 37964 ft | 464 kts | 243° |
| 2026-05-09 03:06 | 43.41348 | -67.35979 | 37964 ft | 464 kts | 243° |
| 2026-05-09 03:07 | 43.38105 | -67.43623 | 37964 ft | 464 kts | 243° |
| 2026-05-09 03:07 | 43.34842 | -67.51297 | 37964 ft | 464 kts | 243° |
| 2026-05-09 03:08 | 43.31581 | -67.58945 | 37969 ft | 464 kts | 243° |
| 2026-05-09 03:08 | 43.28329 | -67.66552 | 37969 ft | 464 kts | 243° |
| 2026-05-09 03:09 | 43.25048 | -67.74207 | 37969 ft | 463 kts | 243° |
| 2026-05-09 03:09 | 43.21791 | -67.81786 | 37970 ft | 463 kts | 243° |
| 2026-05-09 03:10 | 43.18506 | -67.89408 | 37974 ft | 463 kts | 243° |
| 2026-05-09 03:10 | 43.15225 | -67.97004 | 37973 ft | 462 kts | 243° |
| 2026-05-09 03:11 | 43.11961 | -68.04539 | 37978 ft | 462 kts | 243° |
| 2026-05-09 03:11 | 43.08676 | -68.12105 | 37977 ft | 461 kts | 243° |
| 2026-05-09 03:12 | 43.05407 | -68.19614 | 37980 ft | 461 kts | 243° |
| 2026-05-09 03:12 | 43.02122 | -68.27139 | 37977 ft | 460 kts | 243° |
| 2026-05-09 03:13 | 42.97195 | -68.38393 | 37984 ft | 459 kts | 243° |
| 2026-05-09 03:13 | 42.93925 | -68.45836 | 37982 ft | 459 kts | 243° |
| 2026-05-09 03:14 | 42.90635 | -68.53307 | 37983 ft | 458 kts | 243° |
| 2026-05-09 03:14 | 42.87344 | -68.60761 | 37977 ft | 458 kts | 243° |
| 2026-05-09 03:15 | 42.84069 | -68.68160 | 37983 ft | 457 kts | 243° |
| 2026-05-09 03:15 | 42.80777 | -68.75579 | 37979 ft | 457 kts | 243° |
| 2026-05-09 03:16 | 42.77480 | -68.82989 | 37986 ft | 456 kts | 243° |
| 2026-05-09 03:16 | 42.74204 | -68.90335 | 37992 ft | 456 kts | 243° |
| 2026-05-09 03:17 | 42.70901 | -68.97723 | 37989 ft | 455 kts | 243° |
| 2026-05-09 03:17 | 42.67603 | -69.05081 | 37992 ft | 455 kts | 243° |
| 2026-05-09 03:18 | 42.64327 | -69.12372 | 37995 ft | 455 kts | 243° |
| 2026-05-09 03:18 | 42.61026 | -69.19700 | 37996 ft | 454 kts | 243° |
| 2026-05-09 03:19 | 42.57722 | -69.27019 | 37992 ft | 454 kts | 243° |
| 2026-05-09 03:19 | 42.54414 | -69.34325 | 37991 ft | 453 kts | 243° |
| 2026-05-09 03:20 | 42.51127 | -69.41569 | 37996 ft | 453 kts | 243° |
| 2026-05-09 03:20 | 42.47813 | -69.48855 | 37990 ft | 453 kts | 243° |
| 2026-05-09 03:21 | 42.44499 | -69.56124 | 37992 ft | 453 kts | 243° |
| 2026-05-09 03:21 | 42.41202 | -69.63335 | 37993 ft | 453 kts | 243° |
| 2026-05-09 03:22 | 42.37880 | -69.70586 | 37998 ft | 453 kts | 242° |
| 2026-05-09 03:22 | 42.34553 | -69.77829 | 37997 ft | 452 kts | 242° |
| 2026-05-09 03:23 | 42.31243 | -69.85019 | 38009 ft | 452 kts | 242° |
| 2026-05-09 03:23 | 42.27913 | -69.92232 | 38003 ft | 452 kts | 242° |
| 2026-05-09 03:24 | 42.24574 | -69.99450 | 38005 ft | 452 kts | 242° |
| 2026-05-09 03:24 | 42.21259 | -70.06599 | 38002 ft | 451 kts | 242° |
| 2026-05-09 03:25 | 42.17922 | -70.13776 | 38007 ft | 451 kts | 242° |
| 2026-05-09 03:25 | 42.14583 | -70.20944 | 38009 ft | 450 kts | 242° |
| 2026-05-09 03:26 | 42.11245 | -70.28091 | 38008 ft | 449 kts | 242° |
| 2026-05-09 03:26 | 42.07935 | -70.35165 | 38005 ft | 449 kts | 242° |
| 2026-05-09 03:27 | 42.04666 | -70.42330 | 38005 ft | 446 kts | 245° |
| 2026-05-09 03:27 | 42.02104 | -70.49876 | 38010 ft | 442 kts | 251° |
| 2026-05-09 03:28 | 41.99738 | -70.57500 | 38004 ft | 442 kts | 250° |
| 2026-05-09 03:28 | 41.97332 | -70.65099 | 37994 ft | 441 kts | 251° |
| 2026-05-09 03:29 | 41.94965 | -70.72651 | 37998 ft | 441 kts | 250° |
| 2026-05-09 03:29 | 41.92569 | -70.80233 | 37998 ft | 441 kts | 250° |
| 2026-05-09 03:30 | 41.90159 | -70.87814 | 37999 ft | 440 kts | 250° |
| 2026-05-09 03:30 | 41.87764 | -70.95330 | 38016 ft | 440 kts | 250° |
| 2026-05-09 03:31 | 41.85351 | -71.02873 | 38012 ft | 440 kts | 250° |
| 2026-05-09 03:31 | 41.82935 | -71.10411 | 38015 ft | 439 kts | 250° |
| 2026-05-09 03:32 | 41.80520 | -71.17940 | 38011 ft | 439 kts | 250° |
| 2026-05-09 03:32 | 41.78103 | -71.25446 | 38012 ft | 438 kts | 250° |
| 2026-05-09 03:33 | 41.75699 | -71.32889 | 38013 ft | 438 kts | 250° |
| 2026-05-09 03:33 | 41.72884 | -71.40153 | 38009 ft | 444 kts | 240° |
| 2026-05-09 03:34 | 41.69003 | -71.46657 | 38019 ft | 450 kts | 233° |
| 2026-05-09 03:34 | 41.64300 | -71.52238 | 38006 ft | 456 kts | 226° |
| 2026-05-09 03:35 | 41.59481 | -71.57469 | 38001 ft | 429 kts | 226° |
| 2026-05-09 03:35 | 41.54917 | -71.62473 | 37098 ft | 427 kts | 227° |
| 2026-05-09 03:36 | 41.52620 | -71.65030 | 36206 ft | 429 kts | 228° |
| 2026-05-09 03:36 | 41.50355 | -71.67543 | 35898 ft | 417 kts | 228° |
| 2026-05-09 03:36 | 41.48145 | -71.69988 | 35568 ft | 407 kts | 228° |
| 2026-05-09 03:36 | 41.45990 | -71.72374 | 35251 ft | 398 kts | 229° |
| 2026-05-09 03:37 | 41.43888 | -71.74703 | 34927 ft | 389 kts | 229° |
| 2026-05-09 03:37 | 41.41829 | -71.76983 | 34513 ft | 383 kts | 229° |
| 2026-05-09 03:37 | 41.39777 | -71.79261 | 33903 ft | 382 kts | 230° |
| 2026-05-09 03:37 | 41.37730 | -71.81531 | 33215 ft | 381 kts | 230° |
| 2026-05-09 03:38 | 41.35715 | -71.83762 | 32562 ft | 382 kts | 230° |
| 2026-05-09 03:38 | 41.33667 | -71.86030 | 31928 ft | 388 kts | 230° |
| 2026-05-09 03:38 | 41.31561 | -71.88359 | 31284 ft | 395 kts | 230° |
| 2026-05-09 03:38 | 41.29424 | -71.90714 | 30658 ft | 402 kts | 230° |
| 2026-05-09 03:39 | 41.27254 | -71.93099 | 30041 ft | 406 kts | 230° |
| 2026-05-09 03:39 | 41.25069 | -71.95497 | 29327 ft | 408 kts | 230° |
| 2026-05-09 03:39 | 41.22866 | -71.97913 | 28630 ft | 410 kts | 229° |
| 2026-05-09 03:39 | 41.20661 | -72.00329 | 27947 ft | 411 kts | 229° |
| 2026-05-09 03:40 | 41.18453 | -72.02746 | 27286 ft | 411 kts | 229° |
| 2026-05-09 03:40 | 41.16251 | -72.05156 | 26642 ft | 408 kts | 229° |
| 2026-05-09 03:40 | 41.14075 | -72.07529 | 26004 ft | 401 kts | 229° |
| 2026-05-09 03:40 | 41.12091 | -72.09965 | 25371 ft | 384 kts | 237° |
| 2026-05-09 03:41 | 41.10529 | -72.12741 | 24992 ft | 366 kts | 244° |
| 2026-05-09 03:41 | 41.09251 | -72.15589 | 24671 ft | 352 kts | 249° |
| 2026-05-09 03:41 | 41.08275 | -72.18494 | 24317 ft | 339 kts | 256° |
| 2026-05-09 03:41 | 41.07528 | -72.21461 | 23728 ft | 339 kts | 257° |
| 2026-05-09 03:42 | 41.06805 | -72.24434 | 23066 ft | 339 kts | 257° |
| 2026-05-09 03:42 | 41.06085 | -72.27407 | 22390 ft | 338 kts | 257° |
| 2026-05-09 03:42 | 41.05362 | -72.30379 | 21727 ft | 338 kts | 256° |
| 2026-05-09 03:42 | 41.04637 | -72.33338 | 21020 ft | 338 kts | 256° |
| 2026-05-09 03:43 | 41.03910 | -72.36291 | 20100 ft | 345 kts | 255° |
| 2026-05-09 03:43 | 41.03157 | -72.39334 | 19193 ft | 345 kts | 255° |
| 2026-05-09 03:43 | 41.02415 | -72.42301 | 18297 ft | 334 kts | 255° |
| 2026-05-09 03:43 | 41.01692 | -72.45186 | 17293 ft | 324 kts | 255° |
| 2026-05-09 03:44 | 41.00978 | -72.48043 | 16443 ft | 330 kts | 255° |
| 2026-05-09 03:44 | 41.00260 | -72.50912 | 16050 ft | 324 kts | 255° |
| 2026-05-09 03:44 | 40.99567 | -72.53673 | 15721 ft | 317 kts | 255° |
| 2026-05-09 03:44 | 40.98879 | -72.56414 | 15394 ft | 311 kts | 255° |
| 2026-05-09 03:45 | 40.98202 | -72.59107 | 15057 ft | 306 kts | 255° |
| 2026-05-09 03:45 | 40.97532 | -72.61774 | 14742 ft | 304 kts | 255° |
| 2026-05-09 03:45 | 40.96864 | -72.64432 | 14419 ft | 303 kts | 256° |
| 2026-05-09 03:45 | 40.96200 | -72.67074 | 14114 ft | 302 kts | 256° |
| 2026-05-09 03:46 | 40.95541 | -72.69686 | 13783 ft | 297 kts | 256° |
| 2026-05-09 03:46 | 40.94890 | -72.72261 | 13424 ft | 293 kts | 256° |
| 2026-05-09 03:46 | 40.94248 | -72.74802 | 13066 ft | 289 kts | 255° |
| 2026-05-09 03:46 | 40.93606 | -72.77294 | 12717 ft | 282 kts | 252° |
| 2026-05-09 03:47 | 40.92634 | -72.79556 | 12363 ft | 284 kts | 239° |
| 2026-05-09 03:47 | 40.91317 | -72.81520 | 12022 ft | 287 kts | 227° |
| 2026-05-09 03:47 | 40.89730 | -72.83119 | 11797 ft | 285 kts | 223° |
| 2026-05-09 03:47 | 40.88139 | -72.84614 | 11619 ft | 283 kts | 223° |
| 2026-05-09 03:48 | 40.86543 | -72.86110 | 11434 ft | 280 kts | 223° |
| 2026-05-09 03:48 | 40.84957 | -72.87605 | 11258 ft | 278 kts | 223° |
| 2026-05-09 03:48 | 40.83384 | -72.89095 | 11092 ft | 277 kts | 223° |
| 2026-05-09 03:48 | 40.82351 | -72.90078 | 10966 ft | 276 kts | 223° |
| 2026-05-09 03:49 | 40.80794 | -72.91562 | 10781 ft | 275 kts | 223° |
| 2026-05-09 03:49 | 40.78741 | -72.93523 | 10541 ft | 273 kts | 223° |
| 2026-05-09 03:49 | 40.77702 | -72.94516 | 10437 ft | 273 kts | 223° |
| 2026-05-09 03:49 | 40.76165 | -72.95985 | 10274 ft | 272 kts | 223° |
| 2026-05-09 03:50 | 40.74652 | -72.97432 | 10090 ft | 272 kts | 223° |
| 2026-05-09 03:50 | 40.73117 | -72.98898 | 9919 ft | 272 kts | 223° |
| 2026-05-09 03:50 | 40.71584 | -73.00361 | 9729 ft | 271 kts | 223° |
| 2026-05-09 03:50 | 40.70057 | -73.01816 | 9548 ft | 270 kts | 223° |
| 2026-05-09 03:51 | 40.68707 | -73.03434 | 9331 ft | 256 kts | 239° |
| 2026-05-09 03:51 | 40.67894 | -73.05458 | 9147 ft | 245 kts | 252° |
| 2026-05-09 03:51 | 40.67297 | -73.07539 | 8823 ft | 242 kts | 253° |
| 2026-05-09 03:51 | 40.66720 | -73.09618 | 8491 ft | 241 kts | 253° |
| 2026-05-09 03:52 | 40.66152 | -73.11670 | 8155 ft | 241 kts | 253° |
| 2026-05-09 03:52 | 40.65578 | -73.13737 | 7819 ft | 240 kts | 253° |
| 2026-05-09 03:52 | 40.65002 | -73.15806 | 7490 ft | 240 kts | 253° |
| 2026-05-09 03:52 | 40.64425 | -73.17869 | 7164 ft | 239 kts | 253° |
| 2026-05-09 03:53 | 40.63849 | -73.19922 | 6835 ft | 237 kts | 253° |
| 2026-05-09 03:53 | 40.63284 | -73.21933 | 6527 ft | 236 kts | 252° |
| 2026-05-09 03:53 | 40.62714 | -73.23957 | 6192 ft | 235 kts | 252° |
| 2026-05-09 03:53 | 40.62143 | -73.25980 | 5847 ft | 235 kts | 252° |
| 2026-05-09 03:54 | 40.61574 | -73.27998 | 5512 ft | 235 kts | 252° |
| 2026-05-09 03:54 | 40.61005 | -73.30009 | 5227 ft | 234 kts | 252° |
| 2026-05-09 03:54 | 40.60442 | -73.31996 | 5048 ft | 230 kts | 252° |
| 2026-05-09 03:54 | 40.59886 | -73.33960 | 4876 ft | 229 kts | 251° |
| 2026-05-09 03:55 | 40.59328 | -73.35925 | 4689 ft | 229 kts | 251° |
| 2026-05-09 03:55 | 40.58770 | -73.37893 | 4500 ft | 230 kts | 251° |
| 2026-05-09 03:55 | 40.58216 | -73.39841 | 4327 ft | 230 kts | 251° |
| 2026-05-09 03:55 | 40.57654 | -73.41820 | 4144 ft | 231 kts | 251° |
| 2026-05-09 03:56 | 40.57091 | -73.43801 | 3964 ft | 232 kts | 251° |
| 2026-05-09 03:56 | 40.56525 | -73.45790 | 3798 ft | 232 kts | 251° |
| 2026-05-09 03:56 | 40.55964 | -73.47757 | 3620 ft | 227 kts | 250° |
| 2026-05-09 03:56 | 40.55415 | -73.49677 | 3456 ft | 221 kts | 250° |
| 2026-05-09 03:57 | 40.54880 | -73.51549 | 3291 ft | 216 kts | 250° |
| 2026-05-09 03:57 | 40.54581 | -73.53406 | 3194 ft | 206 kts | 275° |
| 2026-05-09 03:57 | 40.55039 | -73.55132 | 3097 ft | 196 kts | 294° |
| 2026-05-09 03:57 | 40.55657 | -73.56655 | 3006 ft | 186 kts | 297° |
| 2026-05-09 03:58 | 40.56276 | -73.58062 | 3032 ft | 170 kts | 297° |
| 2026-05-09 03:58 | 40.56879 | -73.59403 | 2961 ft | 171 kts | 298° |
| 2026-05-09 03:58 | 40.57494 | -73.60760 | 2719 ft | 172 kts | 298° |
| 2026-05-09 03:58 | 40.58103 | -73.62099 | 2480 ft | 169 kts | 298° |
| 2026-05-09 03:59 | 40.58708 | -73.63433 | 2253 ft | 170 kts | 298° |
| 2026-05-09 03:59 | 40.59319 | -73.64782 | 2030 ft | 172 kts | 298° |
| 2026-05-09 03:59 | 40.59933 | -73.66138 | 1807 ft | 172 kts | 298° |
| 2026-05-09 03:59 | 40.60526 | -73.67442 | 1604 ft | 159 kts | 298° |
| 2026-05-09 04:00 | 40.61067 | -73.68632 | 1353 ft | 146 kts | 298° |
| 2026-05-09 04:00 | 40.61559 | -73.69717 | 1177 ft | 132 kts | 297° |
| 2026-05-09 04:00 | 40.61688 | -73.70002 | 1129 ft | 130 kts | 297° |
| 2026-05-09 04:00 | 40.62132 | -73.70985 | 959 ft | 132 kts | 297° |
| 2026-05-09 04:01 | 40.62607 | -73.72037 | 782 ft | 135 kts | 298° |
| 2026-05-09 04:01 | 40.63091 | -73.73100 | 582 ft | 134 kts | 299° |
| 2026-05-09 04:01 | 40.63565 | -73.74174 | 413 ft | 137 kts | 301° |
| 2026-05-09 04:01 | 40.64054 | -73.75247 | 232 ft | 135 kts | 302° |
| 2026-05-09 04:02 | 40.64530 | -73.76287 | 65 ft | 134 kts | 303° |
| 2026-05-09 04:02 | 40.64990 | -73.77291 | 26 ft | 117 kts | 300° |
| 2026-05-09 04:02 | 40.65342 | -73.78064 | 26 ft | 62 kts | 301° |
| 2026-05-09 04:02 | 40.65399 | -73.78368 | 27 ft | 27 kts | 237° |
| 2026-05-09 04:03 | 40.65309 | -73.78587 | 20 ft | 27 kts | 243° |
| 2026-05-09 04:03 | 40.65222 | -73.78807 | 20 ft | 23 kts | 252° |
| 2026-05-09 04:03 | 40.65240 | -73.79009 | 22 ft | 23 kts | 287° |
| 2026-05-09 04:03 | 40.65284 | -73.79207 | 22 ft | 23 kts | 282° |
| 2026-05-09 04:04 | 40.65255 | -73.79403 | 20 ft | 23 kts | 245° |
| 2026-05-09 04:04 | 40.65178 | -73.79583 | 22 ft | 23 kts | 241° |
| 2026-05-09 04:04 | 40.65088 | -73.79751 | 20 ft | 23 kts | 220° |
| 2026-05-09 04:04 | 40.64941 | -73.79807 | 20 ft | 23 kts | 180° |
| 2026-05-09 04:05 | 40.64784 | -73.79799 | 22 ft | 23 kts | 167° |
| 2026-05-09 04:05 | 40.64651 | -73.79696 | 20 ft | 18 kts | 144° |
| 2026-05-09 04:05 | 40.64590 | -73.79640 | 20 ft | 10 kts | 147° |
| 2026-05-09 04:05 | 40.64560 | -73.79617 | 20 ft | 4 kts | 154° |
| 2026-05-09 04:06 | 40.64531 | -73.79605 | 22 ft | 4 kts | 167° |
| 2026-05-09 04:06 | 40.64469 | -73.79597 | 20 ft | 13 kts | 175° |
| 2026-05-09 04:06 | 40.64377 | -73.79592 | 20 ft | 13 kts | 181° |
| 2026-05-09 04:06 | 40.64285 | -73.79599 | 20 ft | 13 kts | 184° |
| 2026-05-09 04:07 | 40.64253 | -73.79601 | 20 ft | 1 kts | 184° |
| 2026-05-09 04:07 | 40.64244 | -73.79602 | 23 ft | 1 kts | 184° |
| 2026-05-09 04:07 | 40.64234 | -73.79603 | 20 ft | 1 kts | 184° |
| 2026-05-09 04:07 | 40.64224 | -73.79604 | 22 ft | 1 kts | 184° |
| 2026-05-09 04:08 | 40.64214 | -73.79604 | 20 ft | 2 kts | 182° |
| 2026-05-09 04:08 | 40.64202 | -73.79602 | 20 ft | 1 kts | 161° |
| 2026-05-09 04:08 | 40.64198 | -73.79593 | 24 ft | 1 kts | 125° |
| 2026-05-09 04:08 | 40.64194 | -73.79569 | 20 ft | 5 kts | 101° |
| 2026-05-09 04:09 | 40.64201 | -73.79497 | 21 ft | 10 kts | 71° |
| 2026-05-09 04:09 | 40.64234 | -73.79413 | 22 ft | 10 kts | 56° |
| 2026-05-09 04:09 | 40.64279 | -73.79345 | 21 ft | 6 kts | 52° |
| 2026-05-09 04:09 | 40.64277 | -73.79318 | 20 ft | 0 kts | 116° |
| 2026-05-09 04:10 | 40.64276 | -73.79315 | 20 ft | 0 kts | 119° |
| 2026-05-09 04:10 | 40.64274 | -73.79311 | 20 ft | 1 kts | 121° |
| 2026-05-09 04:10 | 40.64261 | -73.79292 | 21 ft | 4 kts | 134° |
| 2026-05-09 04:10 | 40.64241 | -73.79276 | 20 ft | 0 kts | 152° |
| 2026-05-09 04:11 | 40.64238 | -73.79273 | 22 ft | 1 kts | 152° |
| 2026-05-09 04:11 | 40.64233 | -73.79270 | 21 ft | 1 kts | 152° |
| 2026-05-09 04:11 | 40.64229 | -73.79267 | 24 ft | 0 kts | 152° |
| 2026-05-09 04:12 | 40.64227 | -73.79266 | 24 ft | 1 kts | 152° |
| 2026-05-09 04:12 | 40.64225 | -73.79265 | 23 ft | 0 kts | 152° |